Página principal
METAR-TAF:

METAR-TAF

Aeroportos :

Niamtougou, Togo

latitude: 09-46N, longitude: 001-06E, altura: 342 m

Observação actual do tempo

O boletim foi feito há 42 minutos, às 14:00 UTC
Vento 7 kt de oes-noroeste, variando entre oes-sudoeste e nor-noroeste
Temperatura 32°C
Humidade 63%
Pressão 1011 hPa
Visibilidade 10 km ou mais
Nuvens fragmentadasa uma altura de 800 ft
Poucas nuvensa uma altura de 1600 ft, Cumulonimbus.
trovoada

METAR: DXNG 221400Z 30007KT 250V340 9999 TS BKN008 FEW016CB 32/24 Q1011 TEMPO 4000 TSRA

Hora: 14:42 (14:42 UTC)

Previsão

O boletim foi feito há 3 horas e 42 minutos, às 11:00 UTC
Previsão válida de 22 às 12 UTC a 23 às 12 UTC
Vento 5 kt com direcção variável
Visibilidade 10 km ou mais
Poucas nuvensa uma altura de 600 ft

TAF: DXNG 221100Z 2212/2312 VRB05KT 9999 FEW006

Observações e previsões do tempo de mais de 4000 aeroportos (mensagens METAR e TAF).

As estações disponíveis são os pontos amarelos e vermelhos sobre o mapa.

Mova o rato sobre o mapa para ver o nome da estação.

Depois clique no ponto para visualizar as observações e previsões meteorológicas.

Para alterar o mapa : clique nos botões verdes com uma cruz preta para aumentar o zoom; no botão verde com uma pitada de zoom; ou nas setas verdes para mapas adjacentes.


METAR-TAF: